createdAt,value
2018-12-01T00:02:14.063Z,113.10
2018-12-01T00:04:42.048Z,154.90
2018-12-01T00:07:10.033Z,142.93
2018-12-01T00:09:38.048Z,105.23
2018-12-01T00:12:06.153Z,169.90
2018-12-01T00:14:34.166Z,104.83
2018-12-01T00:17:02.130Z,90.47
2018-12-01T00:19:30.107Z,77.70
2018-12-01T00:21:58.107Z,60.43
2018-12-01T00:24:26.130Z,81.57
2018-12-01T00:26:54.140Z,136.60
2018-12-01T00:29:22.155Z,146.03
2018-12-01T00:31:50.190Z,77.13
2018-12-01T00:34:18.153Z,57.87
2018-12-01T00:36:46.117Z,46.07
2018-12-01T00:39:14.186Z,41.63
2018-12-01T00:41:42.163Z,32.13
2018-12-01T00:44:10.153Z,41.83
2018-12-01T00:46:38.149Z,47.77
2018-12-01T00:49:06.112Z,44.50
2018-12-01T00:51:34.104Z,27.03
2018-12-01T00:54:02.208Z,43.60
2018-12-01T00:56:30.196Z,35.67
2018-12-01T00:58:58.176Z,31.30
2018-12-01T01:01:26.164Z,37.80
2018-12-01T01:03:54.161Z,41.33
2018-12-01T01:06:22.182Z,39.97
2018-12-01T01:08:50.160Z,33.27
2018-12-01T01:11:18.163Z,47.17
2018-12-01T01:13:46.122Z,31.10
2018-12-01T01:16:14.109Z,37.73
2018-12-01T01:18:42.100Z,34.77
2018-12-01T01:21:10.072Z,34.03
2018-12-01T01:23:38.060Z,41.57
2018-12-01T01:26:06.052Z,40.77
2018-12-01T01:28:34.030Z,30.23
2018-12-01T01:31:02.063Z,32.40
2018-12-01T01:33:30.449Z,35.20
2018-12-01T01:35:58.429Z,43.27
2018-12-01T01:38:26.518Z,36.87
2018-12-01T01:41:00.014Z,26.00
2018-12-01T01:43:28.033Z,41.60
2018-12-01T01:45:56.053Z,38.17
2018-12-01T01:48:23.999Z,36.50
2018-12-01T01:50:51.977Z,39.50
2018-12-01T01:53:20.038Z,28.40
2018-12-01T01:55:48.012Z,35.97
2018-12-01T01:58:16.033Z,48.30
2018-12-01T02:00:44.038Z,34.73
2018-12-01T02:03:12.046Z,46.57
2018-12-01T02:05:40.074Z,43.77
2018-12-01T02:08:08.058Z,32.63
2018-12-01T02:10:36.031Z,31.80
2018-12-01T02:13:04.174Z,34.30
2018-12-01T02:15:32.176Z,43.73
2018-12-01T02:18:00.185Z,39.07
2018-12-01T02:20:28.213Z,33.07
2018-12-01T02:22:56.254Z,33.43
2018-12-01T02:25:24.257Z,37.67
2018-12-01T02:27:52.612Z,37.13
2018-12-01T02:30:20.991Z,29.77
2018-12-01T02:32:49.274Z,37.20
2018-12-01T02:35:18.618Z,44.23
2018-12-01T02:37:46.597Z,36.53
2018-12-01T02:40:14.659Z,33.93
2018-12-01T02:42:43.081Z,42.20
2018-12-01T02:45:22.368Z,43.73
2018-12-01T02:47:50.399Z,45.97
2018-12-01T02:50:24.913Z,45.77
2018-12-01T02:52:53.759Z,44.20
2018-12-01T02:55:21.765Z,45.37
2018-12-01T02:57:49.875Z,53.60
2018-12-01T03:00:17.906Z,35.80
2018-12-01T03:02:45.882Z,37.37
2018-12-01T03:05:13.896Z,43.87
2018-12-01T03:07:41.920Z,56.00
2018-12-01T03:10:13.834Z,38.37
2018-12-01T03:12:41.825Z,33.90
2018-12-01T03:15:12.544Z,38.87
2018-12-01T03:17:40.633Z,38.57
2018-12-01T03:20:11.655Z,40.20
2018-12-01T03:22:39.689Z,40.63
2018-12-01T03:25:10.047Z,38.57
2018-12-01T03:27:38.385Z,30.57
2018-12-01T03:30:10.668Z,39.47
2018-12-01T03:32:38.713Z,39.43
2018-12-01T03:35:12.425Z,37.93
2018-12-01T03:37:43.108Z,38.87
2018-12-01T03:40:11.892Z,64.53
2018-12-01T03:42:39.920Z,55.90
2018-12-01T03:45:10.432Z,46.90
2018-12-01T03:47:38.473Z,56.10
2018-12-01T03:50:07.841Z,40.20
2018-12-01T03:52:35.840Z,38.73
2018-12-01T03:55:04.209Z,42.00
2018-12-01T03:57:32.176Z,41.53
2018-12-01T04:00:00.178Z,38.43
2018-12-01T04:02:28.150Z,41.53
2018-12-01T04:04:56.149Z,55.67
2018-12-01T04:07:24.144Z,53.73
2018-12-01T04:09:52.136Z,31.27
2018-12-01T04:12:20.148Z,48.00
2018-12-01T04:14:48.160Z,62.10
2018-12-01T04:17:16.132Z,51.60
2018-12-01T04:19:44.106Z,48.70
2018-12-01T04:22:12.118Z,53.37
2018-12-01T04:24:40.060Z,61.97
2018-12-01T04:27:08.024Z,70.30
2018-12-01T04:29:36.068Z,64.07
2018-12-01T04:32:04.080Z,48.43
2018-12-01T04:34:32.094Z,73.00
2018-12-01T04:37:00.080Z,96.37
2018-12-01T04:39:28.096Z,55.43
2018-12-01T04:41:56.064Z,60.37
2018-12-01T04:44:24.087Z,54.20
2018-12-01T04:46:52.068Z,54.17
2018-12-01T04:49:20.028Z,49.20
2018-12-01T04:51:48.053Z,55.73
2018-12-01T04:54:16.046Z,35.27
2018-12-01T04:56:44.010Z,53.10
2018-12-01T04:59:12.019Z,46.27
2018-12-01T05:01:40.034Z,52.17
2018-12-01T05:04:08.024Z,52.70
2018-12-01T05:06:36.084Z,82.30
2018-12-01T05:09:06.344Z,72.67
2018-12-01T05:11:34.372Z,80.90
2018-12-01T05:14:02.515Z,65.07
2018-12-01T05:16:30.508Z,60.90
2018-12-01T05:18:58.478Z,65.00
2018-12-01T05:21:26.536Z,90.70
2018-12-01T05:23:54.533Z,63.90
2018-12-01T05:26:22.510Z,58.30
2018-12-01T05:28:50.542Z,54.50
2018-12-01T05:31:18.536Z,62.00
2018-12-01T05:33:46.518Z,62.03
2018-12-01T05:36:14.543Z,66.60
2018-12-01T05:38:42.533Z,70.87
2018-12-01T05:41:10.512Z,89.63
2018-12-01T05:43:38.547Z,123.63
2018-12-01T05:46:06.548Z,105.53
2018-12-01T05:48:34.528Z,92.07
2018-12-01T05:51:02.535Z,100.87
2018-12-01T05:53:30.528Z,92.97
2018-12-01T05:55:58.514Z,73.87
2018-12-01T05:58:26.516Z,73.77
2018-12-01T06:00:54.506Z,57.83
2018-12-01T06:03:22.482Z,54.47
2018-12-01T06:05:50.496Z,73.70
2018-12-01T06:08:18.477Z,101.20
2018-12-01T06:10:46.590Z,93.80
2018-12-01T06:13:14.573Z,83.90
2018-12-01T06:15:42.588Z,57.03
2018-12-01T06:18:10.578Z,73.97
2018-12-01T06:20:38.624Z,64.10
2018-12-01T06:23:06.615Z,83.30
2018-12-01T06:25:34.621Z,76.03
2018-12-01T06:28:02.686Z,66.13
2018-12-01T06:30:30.670Z,46.07
2018-12-01T06:32:58.703Z,48.40
2018-12-01T06:35:26.721Z,65.37
2018-12-01T06:37:54.734Z,80.20
2018-12-01T06:40:22.755Z,79.53
2018-12-01T06:42:50.793Z,66.37
2018-12-01T06:45:18.974Z,74.47
2018-12-01T06:47:47.034Z,37.20
2018-12-01T06:50:17.424Z,61.20
2018-12-01T06:52:45.461Z,141.43
2018-12-01T06:55:14.023Z,123.93
2018-12-01T06:57:43.080Z,84.20
2018-12-01T07:00:12.532Z,94.30
2018-12-01T07:02:40.917Z,150.80
2018-12-01T07:05:10.279Z,137.63
2018-12-01T07:07:38.266Z,98.60
2018-12-01T07:10:09.866Z,154.40
2018-12-01T07:12:37.930Z,134.83
2018-12-01T07:15:08.318Z,94.93
2018-12-01T07:17:36.374Z,101.83
2018-12-01T07:20:05.159Z,84.17
2018-12-01T07:22:33.156Z,68.83
2018-12-01T07:25:01.182Z,98.03
2018-12-01T07:27:29.184Z,77.03
2018-12-01T07:29:58.197Z,45.10
2018-12-01T07:32:25.268Z,69.80
2018-12-01T07:34:53.253Z,61.10
2018-12-01T07:37:21.257Z,58.03
2018-12-01T07:39:49.275Z,45.43
2018-12-01T07:42:18.069Z,55.83
2018-12-01T07:44:47.042Z,50.33
2018-12-01T07:47:14.164Z,64.30
2018-12-01T07:49:42.178Z,64.87
2018-12-01T07:52:10.182Z,56.30
2018-12-01T07:54:38.196Z,53.50
2018-12-01T07:57:06.210Z,93.33
2018-12-01T07:59:34.194Z,70.80
2018-12-01T08:02:02.180Z,68.30
2018-12-01T08:04:30.140Z,71.90
2018-12-01T08:06:58.161Z,84.63
2018-12-01T08:09:26.165Z,56.00
2018-12-01T08:11:54.192Z,91.60
2018-12-01T08:14:22.211Z,95.13
2018-12-01T08:16:50.351Z,77.83
2018-12-01T08:19:18.351Z,98.10
2018-12-01T08:21:46.314Z,90.17
2018-12-01T08:24:14.351Z,83.00
2018-12-01T08:26:42.415Z,93.23
2018-12-01T08:29:10.428Z,107.40
2018-12-01T08:31:38.478Z,84.43
2018-12-01T08:34:06.487Z,71.80
2018-12-01T08:36:34.505Z,99.87
2018-12-01T08:39:02.653Z,86.37
2018-12-01T08:41:32.185Z,84.50
2018-12-01T08:44:00.185Z,79.90
2018-12-01T08:46:28.160Z,57.17
2018-12-01T08:48:56.161Z,75.10
2018-12-01T08:51:24.188Z,75.33
2018-12-01T08:53:52.217Z,86.00
2018-12-01T08:56:20.187Z,90.20
2018-12-01T08:58:48.173Z,91.47
2018-12-01T09:01:16.181Z,80.47
2018-12-01T09:03:44.156Z,71.97
2018-12-01T09:06:12.098Z,91.23
2018-12-01T09:08:40.105Z,76.63
2018-12-01T09:11:08.085Z,82.30
2018-12-01T09:13:36.099Z,81.77
2018-12-01T09:16:04.222Z,75.93
2018-12-01T09:18:32.256Z,75.10
2018-12-01T09:21:00.293Z,77.93
2018-12-01T09:23:28.319Z,88.57
2018-12-01T09:25:56.359Z,86.60
2018-12-01T09:28:24.398Z,86.10
2018-12-01T09:30:52.473Z,123.47
2018-12-01T09:33:20.601Z,85.23
2018-12-01T09:35:48.599Z,83.20
2018-12-01T09:38:16.617Z,90.93
2018-12-01T09:40:44.626Z,80.47
2018-12-01T09:43:12.679Z,81.70
2018-12-01T09:45:40.728Z,90.07
2018-12-01T09:48:08.859Z,98.17
2018-12-01T09:50:36.865Z,91.47
2018-12-01T09:53:05.337Z,83.20
2018-12-01T09:55:33.285Z,78.70
2018-12-01T09:58:01.269Z,91.60
2018-12-01T10:00:31.563Z,100.03
2018-12-01T10:03:03.587Z,80.93
2018-12-01T10:05:32.344Z,94.73
2018-12-01T10:08:00.389Z,92.63
2018-12-01T10:10:29.733Z,79.63
2018-12-01T10:12:58.066Z,128.87
2018-12-01T10:15:27.222Z,94.87
2018-12-01T10:17:55.445Z,77.63
2018-12-01T10:20:24.855Z,95.73
2018-12-01T10:22:52.882Z,83.67
2018-12-01T10:25:20.906Z,89.03
2018-12-01T10:27:48.928Z,85.33
2018-12-01T10:30:20.613Z,80.03
2018-12-01T10:32:49.453Z,87.90
2018-12-01T10:35:20.791Z,100.50
2018-12-01T10:37:54.460Z,97.43
2018-12-01T10:40:22.481Z,90.20
2018-12-01T10:42:50.491Z,79.57
2018-12-01T10:45:19.438Z,98.07
2018-12-01T10:47:47.550Z,96.70
2018-12-01T10:50:16.740Z,83.97
2018-12-01T10:52:45.742Z,79.77
2018-12-01T10:55:29.328Z,80.87
2018-12-01T10:58:01.583Z,77.10
2018-12-01T11:00:35.760Z,73.03
2018-12-01T11:03:04.022Z,85.33
2018-12-01T11:05:32.540Z,85.13
2018-12-01T11:08:00.661Z,83.83
2018-12-01T11:10:28.698Z,89.23
2018-12-01T11:12:56.715Z,83.13
2018-12-01T11:15:24.814Z,95.77
2018-12-01T11:17:52.926Z,91.60
2018-12-01T11:20:20.942Z,90.83
2018-12-01T11:22:48.960Z,99.00
2018-12-01T11:25:16.998Z,77.80
2018-12-01T11:27:45.057Z,76.23
2018-12-01T11:30:14.599Z,87.30
2018-12-01T11:32:42.648Z,77.47
2018-12-01T11:35:10.719Z,88.37
2018-12-01T11:37:38.829Z,79.47
2018-12-01T11:40:12.218Z,84.43
2018-12-01T11:42:40.334Z,88.80
2018-12-01T11:45:09.889Z,86.37
2018-12-01T11:47:37.982Z,88.33
2018-12-01T11:50:09.353Z,81.53
2018-12-01T11:52:37.347Z,95.77
2018-12-01T11:55:07.799Z,82.47
2018-12-01T11:57:35.838Z,90.00
2018-12-01T12:00:07.498Z,104.13
2018-12-01T12:02:35.558Z,87.37
2018-12-01T12:05:03.752Z,97.63
2018-12-01T12:07:42.976Z,77.17
2018-12-01T12:10:10.996Z,96.63
2018-12-01T12:12:39.050Z,106.20
2018-12-01T12:15:09.008Z,102.67
2018-12-01T12:17:37.258Z,96.10
2018-12-01T12:20:07.248Z,104.07
2018-12-01T12:22:35.338Z,90.37
2018-12-01T12:25:03.929Z,103.23
2018-12-01T12:27:31.974Z,97.53
2018-12-01T12:30:00.020Z,89.97
2018-12-01T12:32:28.226Z,101.03
2018-12-01T12:34:56.227Z,111.60
2018-12-01T12:37:24.267Z,141.03
2018-12-01T12:39:52.282Z,136.47
2018-12-01T12:42:20.474Z,104.43
2018-12-01T12:44:48.510Z,106.63
2018-12-01T12:47:16.489Z,97.33
2018-12-01T12:49:44.498Z,150.83
2018-12-01T12:52:12.526Z,108.43
2018-12-01T12:54:40.624Z,105.97
2018-12-01T12:57:08.699Z,107.93
2018-12-01T12:59:36.702Z,122.67
2018-12-01T13:02:05.334Z,120.17
2018-12-01T13:04:33.344Z,122.73
2018-12-01T13:07:01.332Z,137.37
2018-12-01T13:09:29.372Z,137.60
2018-12-01T13:11:57.529Z,120.10
2018-12-01T13:14:25.740Z,128.20
2018-12-01T13:16:53.934Z,138.73
2018-12-01T13:19:22.110Z,108.57
2018-12-01T13:21:50.367Z,102.87
2018-12-01T13:24:18.555Z,107.13
2018-12-01T13:26:46.877Z,123.33
2018-12-01T13:29:15.129Z,97.27
2018-12-01T13:31:43.409Z,126.80
2018-12-01T13:34:11.727Z,146.07
2018-12-01T13:36:40.093Z,137.57
2018-12-01T13:39:09.644Z,149.07
2018-12-01T13:41:37.872Z,153.10
2018-12-01T13:44:06.174Z,163.40
2018-12-01T13:46:34.432Z,156.33
2018-12-01T13:49:02.688Z,160.73
2018-12-01T13:51:30.991Z,166.73
2018-12-01T13:53:59.244Z,186.73
2018-12-01T13:56:27.448Z,176.23
2018-12-01T13:58:55.791Z,164.60
2018-12-01T14:01:24.033Z,177.83
2018-12-01T14:03:52.488Z,192.90
2018-12-01T14:06:20.780Z,208.83
2018-12-01T14:08:48.978Z,212.73
2018-12-01T14:11:17.279Z,204.37
2018-12-01T14:13:45.542Z,177.97
2018-12-01T14:16:13.773Z,206.50
2018-12-01T14:18:42.069Z,226.53
2018-12-01T14:21:10.307Z,204.67
2018-12-01T14:23:38.639Z,214.50
2018-12-01T14:26:06.915Z,207.57
2018-12-01T14:28:35.151Z,205.03
2018-12-01T14:31:03.433Z,198.63
2018-12-01T14:33:31.696Z,201.17
2018-12-01T14:35:59.929Z,205.93
2018-12-01T14:38:28.125Z,218.30
2018-12-01T14:40:56.301Z,214.63
2018-12-01T14:43:24.878Z,221.97
2018-12-01T14:45:53.053Z,241.53
2018-12-01T14:48:21.222Z,242.07
2018-12-01T14:50:49.293Z,272.13
2018-12-01T14:53:18.245Z,246.07
2018-12-01T14:55:46.241Z,273.10
2018-12-01T14:58:14.268Z,312.00
2018-12-01T15:00:42.289Z,225.60
2018-12-01T15:03:10.371Z,214.13
2018-12-01T15:05:39.625Z,231.07
2018-12-01T15:08:07.823Z,250.80
2018-12-01T15:10:36.126Z,216.33
2018-12-01T15:13:04.255Z,228.00
2018-12-01T15:15:32.327Z,236.23
2018-12-01T15:18:00.413Z,207.83
2018-12-01T15:20:28.565Z,223.40
2018-12-01T15:22:58.496Z,213.23
2018-12-01T15:25:31.954Z,241.07
2018-12-01T15:28:00.860Z,250.47
2018-12-01T15:30:29.852Z,254.20
2018-12-01T15:33:01.133Z,256.63
2018-12-01T15:35:29.241Z,256.77
2018-12-01T15:37:57.981Z,249.37
2018-12-01T15:40:26.072Z,250.27
2018-12-01T15:42:54.169Z,261.23
2018-12-01T15:45:22.824Z,285.70
2018-12-01T15:47:51.000Z,256.93
2018-12-01T15:50:20.221Z,261.03
2018-12-01T15:52:51.194Z,256.53
2018-12-01T15:55:19.516Z,273.80
2018-12-01T15:57:47.630Z,339.37
2018-12-01T16:00:18.671Z,335.60
2018-12-01T16:02:46.799Z,365.40
2018-12-01T16:05:15.903Z,301.40
2018-12-01T16:07:44.140Z,305.23
2018-12-01T16:10:14.256Z,305.93
2018-12-01T16:12:42.682Z,307.00
2018-12-01T16:15:21.416Z,324.97
2018-12-01T16:17:49.600Z,312.13
2018-12-01T16:20:17.645Z,337.27
2018-12-01T16:22:45.839Z,309.80
2018-12-01T16:25:15.964Z,322.87
2018-12-01T16:27:44.969Z,267.40
2018-12-01T16:30:45.158Z,280.43
2018-12-01T16:33:18.715Z,234.07
2018-12-01T16:35:45.548Z,257.83
2018-12-01T16:38:16.348Z,253.53
2018-12-01T16:40:46.312Z,233.00
2018-12-01T16:43:14.906Z,381.90
2018-12-01T16:45:44.057Z,375.60
2018-12-01T16:48:12.152Z,359.80
2018-12-01T16:50:40.786Z,380.87
2018-12-01T16:53:10.480Z,361.07
2018-12-01T16:55:38.755Z,349.73
2018-12-01T16:58:06.764Z,325.43
2018-12-01T17:00:34.801Z,321.27
2018-12-01T17:03:02.821Z,324.90
2018-12-01T17:05:32.227Z,307.27
2018-12-01T17:08:02.124Z,309.87
2018-12-01T17:10:30.082Z,294.20
2018-12-01T17:12:58.442Z,290.63
2018-12-01T17:15:26.256Z,365.77
2018-12-01T17:17:54.347Z,431.83
2018-12-01T17:20:22.376Z,487.23
2018-12-01T17:22:53.500Z,513.90
2018-12-01T17:25:21.597Z,523.63
2018-12-01T17:27:50.492Z,502.20
2018-12-01T17:30:22.485Z,472.93
2018-12-01T17:32:51.110Z,440.37
2018-12-01T17:35:20.508Z,422.40
2018-12-01T17:37:49.890Z,411.90
2018-12-01T17:40:22.828Z,399.00
2018-12-01T17:42:53.037Z,417.07
2018-12-01T17:45:21.109Z,429.27
2018-12-01T17:47:49.787Z,418.73
2018-12-01T17:50:17.976Z,733.93
2018-12-01T17:52:48.663Z,782.47
2018-12-01T17:55:16.948Z,803.57
2018-12-01T17:57:45.549Z,781.07
2018-12-01T18:00:16.098Z,696.40
2018-12-01T18:02:43.981Z,698.60
2018-12-01T18:05:13.673Z,691.87
2018-12-01T18:07:42.516Z,600.20
2018-12-01T18:10:12.703Z,524.60
2018-12-01T18:12:41.284Z,574.40
2018-12-01T18:15:13.397Z,550.67
2018-12-01T18:17:41.608Z,375.03
2018-12-01T18:20:20.020Z,275.70
2018-12-01T18:23:05.319Z,254.63
2018-12-01T18:25:39.108Z,233.03
2018-12-01T18:28:08.159Z,252.93
2018-12-01T18:30:37.348Z,214.80
2018-12-01T18:33:07.774Z,275.57
2018-12-01T18:35:35.779Z,343.83
2018-12-01T18:38:03.849Z,324.63
2018-12-01T18:40:33.868Z,302.97
2018-12-01T18:43:01.890Z,315.13
2018-12-01T18:45:29.934Z,297.67
2018-12-01T18:47:58.273Z,328.07
2018-12-01T18:50:26.323Z,342.60
2018-12-01T18:52:58.306Z,352.37
2018-12-01T18:55:27.562Z,386.93
2018-12-01T18:57:55.679Z,409.57
2018-12-01T19:00:26.264Z,440.33
2018-12-01T19:02:54.260Z,480.97
2018-12-01T19:05:22.332Z,455.77
2018-12-01T19:07:51.067Z,483.07
2018-12-01T19:10:19.372Z,504.33
2018-12-01T19:12:47.496Z,507.63
2018-12-01T19:15:16.737Z,476.40
2018-12-01T19:17:45.998Z,432.40
2018-12-01T19:20:15.794Z,454.97
2018-12-01T19:22:44.236Z,461.07
2018-12-01T19:25:14.912Z,465.83
2018-12-01T19:27:43.116Z,409.43
2018-12-01T19:30:13.125Z,347.07
2018-12-01T19:32:41.977Z,400.30
2018-12-01T19:35:12.424Z,404.90
2018-12-01T19:37:40.640Z,389.97
2018-12-01T19:40:14.222Z,343.00
2018-12-01T19:42:42.344Z,359.83
2018-12-01T19:45:10.675Z,316.50
2018-12-01T19:47:38.732Z,331.17
2018-12-01T19:50:15.444Z,399.93
2018-12-01T19:52:43.490Z,346.10
2018-12-01T19:55:12.562Z,356.83
2018-12-01T19:57:41.164Z,339.13
2018-12-01T20:00:13.570Z,359.77
2018-12-01T20:02:41.708Z,362.60
2018-12-01T20:05:12.702Z,339.20
2018-12-01T20:07:40.942Z,349.63
2018-12-01T20:10:11.898Z,359.23
2018-12-01T20:12:40.004Z,317.10
2018-12-01T20:15:16.290Z,338.53
2018-12-01T20:17:44.328Z,351.70
2018-12-01T20:20:12.344Z,357.57
2018-12-01T20:22:40.492Z,371.87
2018-12-01T20:25:10.606Z,398.70
2018-12-01T20:27:38.632Z,334.50
2018-12-01T20:30:13.808Z,372.57
2018-12-01T20:32:41.851Z,326.30
2018-12-01T20:35:11.215Z,346.73
2018-12-01T20:37:40.142Z,352.07
2018-12-01T20:40:11.578Z,315.30
2018-12-01T20:42:39.654Z,339.63
2018-12-01T20:45:09.796Z,301.17
2018-12-01T20:47:37.838Z,323.23
2018-12-01T20:50:13.508Z,329.20
2018-12-01T20:52:41.821Z,319.10
2018-12-01T20:55:12.093Z,343.30
2018-12-01T20:57:40.380Z,355.30
2018-12-01T21:00:10.899Z,351.73
2018-12-01T21:02:39.868Z,336.70
2018-12-01T21:05:10.943Z,346.17
2018-12-01T21:07:38.941Z,312.87
2018-12-01T21:10:10.776Z,329.47
2018-12-01T21:12:38.744Z,350.27
2018-12-01T21:15:10.064Z,322.40
2018-12-01T21:17:38.754Z,325.33
2018-12-01T21:20:13.051Z,326.90
2018-12-01T21:22:42.312Z,313.73
2018-12-01T21:25:12.691Z,329.37
2018-12-01T21:27:40.732Z,326.63
2018-12-01T21:30:15.201Z,316.83
2018-12-01T21:32:43.455Z,324.87
2018-12-01T21:35:12.662Z,324.33
2018-12-01T21:37:40.874Z,330.83
2018-12-01T21:40:13.607Z,286.03
2018-12-01T21:42:41.663Z,266.07
2018-12-01T21:45:10.893Z,286.47
2018-12-01T21:47:38.936Z,327.23
2018-12-01T21:50:09.816Z,309.27
2018-12-01T21:52:37.830Z,268.67
2018-12-01T21:55:08.667Z,290.50
2018-12-01T21:57:36.728Z,306.87
2018-12-01T22:00:12.066Z,316.83
2018-12-01T22:02:40.187Z,306.17
2018-12-01T22:05:11.418Z,295.07
2018-12-01T22:07:39.417Z,330.93
2018-12-01T22:10:12.209Z,291.80
2018-12-01T22:12:40.171Z,308.77
2018-12-01T22:15:13.067Z,297.27
2018-12-01T22:17:41.121Z,285.10
2018-12-01T22:20:13.651Z,291.87
2018-12-01T22:22:41.675Z,286.57
2018-12-01T22:25:10.435Z,281.87
2018-12-01T22:27:38.635Z,275.30
2018-12-01T22:30:10.840Z,279.33
2018-12-01T22:32:38.879Z,280.03
2018-12-01T22:35:10.668Z,292.53
2018-12-01T22:37:38.716Z,304.47
2018-12-01T22:40:23.369Z,320.10
2018-12-01T22:42:52.934Z,301.67
2018-12-01T22:45:20.955Z,312.27
2018-12-01T22:47:49.075Z,318.00
2018-12-01T22:50:19.277Z,300.67
2018-12-01T22:52:47.665Z,292.77
2018-12-01T22:55:17.889Z,299.53
2018-12-01T22:57:48.798Z,294.40
2018-12-01T23:00:20.635Z,324.13
2018-12-01T23:02:48.796Z,283.30
2018-12-01T23:05:17.117Z,276.57
2018-12-01T23:07:44.981Z,329.63
2018-12-01T23:10:14.220Z,306.53
2018-12-01T23:12:42.899Z,311.13
2018-12-01T23:15:16.204Z,303.17
2018-12-01T23:17:46.401Z,308.40
2018-12-01T23:20:17.686Z,282.60
2018-12-01T23:22:45.871Z,325.13
2018-12-01T23:25:13.887Z,304.07
2018-12-01T23:27:41.959Z,296.67
2018-12-01T23:30:16.971Z,297.83
2018-12-01T23:32:46.219Z,299.53
2018-12-01T23:35:14.267Z,283.00
2018-12-01T23:37:42.268Z,316.93
2018-12-01T23:40:11.718Z,305.97
2018-12-01T23:42:39.923Z,276.83
2018-12-01T23:45:13.053Z,268.97
2018-12-01T23:47:41.103Z,295.47
2018-12-01T23:50:19.905Z,285.23
2018-12-01T23:52:49.701Z,288.03
2018-12-01T23:55:17.715Z,272.63
2018-12-01T23:57:45.735Z,254.33
